Terminal Aerodrome Forecast
Issued by NWS Twin Cities, MN

Home | Current Version | Previous Version | Text Only | Print | Product List | Glossary On
Versions: 1 2 3 4 5 6 7 8 9 10 11 12 13 14 15 16 17 18 19 20 21 22 23 24 25 26 27
000
FTUS43 KMPX 030520
TAFMSP
TAF
KMSP 030520Z 0306/0412 15010KT P6SM -SN OVC050
     FM031000 15010KT 3SM -SN OVC025
     FM031200 14008KT 1 1/2SM -SN OVC015
      TEMPO 0314/0316 1SM -SN VV008
     FM031700 31017G25KT 1 1/2SM -SN BKN007 OVC015
     FM031900 31022G32KT 6SM BLSN FEW007 BKN025
     FM032300 29018G26KT P6SM FEW025 SCT050=

USA.gov is the U.S. government's official web portal to all federal, state and local government web resources and services.